createdAt,value
2019-03-03T00:01:34.246Z,16.32
2019-03-03T00:04:01.995Z,16.34
2019-03-03T00:06:29.793Z,16.31
2019-03-03T00:08:57.791Z,16.37
2019-03-03T00:11:25.510Z,16.38
2019-03-03T00:13:53.279Z,16.34
2019-03-03T00:16:21.039Z,16.35
2019-03-03T00:18:48.799Z,16.31
2019-03-03T00:21:16.596Z,16.31
2019-03-03T00:23:47.262Z,16.37
2019-03-03T00:26:21.220Z,16.37
2019-03-03T00:28:48.958Z,16.30
2019-03-03T00:31:17.279Z,16.38
2019-03-03T00:33:45.004Z,16.39
2019-03-03T00:36:12.730Z,16.32
2019-03-03T00:38:56.488Z,16.35
2019-03-03T00:41:54.802Z,16.36
2019-03-03T00:44:31.959Z,16.33
2019-03-03T00:47:21.615Z,16.37
2019-03-03T00:50:04.359Z,16.35
2019-03-03T00:53:07.870Z,16.30
2019-03-03T00:55:46.202Z,16.35
2019-03-03T00:58:51.255Z,16.34
2019-03-03T01:01:38.096Z,16.37
2019-03-03T01:04:23.687Z,16.33
2019-03-03T01:07:12.125Z,16.35
2019-03-03T01:09:48.058Z,16.37
2019-03-03T01:12:40.051Z,16.30
2019-03-03T01:15:29.158Z,16.38
2019-03-03T01:18:18.968Z,16.34
2019-03-03T01:20:53.764Z,16.38
2019-03-03T01:23:39.263Z,16.39
2019-03-03T01:26:12.892Z,16.35
2019-03-03T01:28:42.406Z,16.31
2019-03-03T01:31:10.135Z,16.31
2019-03-03T01:33:37.878Z,16.30
2019-03-03T01:36:05.614Z,16.33
2019-03-03T01:38:33.410Z,16.31
2019-03-03T01:41:01.162Z,16.34
2019-03-03T01:43:28.879Z,16.31
2019-03-03T01:45:56.620Z,16.35
2019-03-03T01:48:24.331Z,16.28
2019-03-03T01:50:52.063Z,16.38
2019-03-03T01:53:19.810Z,16.29
2019-03-03T01:55:47.530Z,16.27
2019-03-03T01:58:15.358Z,16.31
2019-03-03T02:00:44.943Z,16.36
2019-03-03T02:03:12.737Z,16.37
2019-03-03T02:05:48.006Z,16.33
2019-03-03T02:08:15.742Z,16.30
2019-03-03T02:10:43.483Z,16.30
2019-03-03T02:13:11.510Z,16.32
2019-03-03T02:15:39.254Z,16.25
2019-03-03T02:18:07.002Z,16.28
2019-03-03T02:20:34.722Z,16.14
2019-03-03T02:23:02.530Z,16.32
2019-03-03T02:25:30.266Z,16.24
2019-03-03T02:27:57.982Z,16.27
2019-03-03T02:30:25.697Z,16.28
2019-03-03T02:32:53.435Z,16.29
2019-03-03T02:41:50.600Z,16.31
2019-03-03T02:53:55.795Z,16.27
2019-03-03T03:07:00.116Z,16.34
2019-03-03T04:00:39.696Z,16.27
2019-03-03T04:26:34.836Z,16.27
2019-03-03T04:36:00.769Z,16.30
2019-03-03T04:45:40.151Z,16.32
2019-03-03T04:48:46.622Z,16.22
2019-03-03T05:03:58.487Z,16.27
2019-03-03T05:13:20.919Z,16.23
2019-03-03T05:25:31.342Z,16.28
2019-03-03T05:28:08.540Z,16.23
2019-03-03T05:39:58.667Z,16.27
2019-03-03T05:52:13.359Z,16.31
2019-03-03T05:57:50.719Z,16.33
2019-03-03T06:16:05.102Z,16.31
2019-03-03T06:21:29.939Z,16.29
2019-03-03T06:24:00.373Z,16.28
2019-03-03T06:39:24.784Z,16.26
2019-03-03T07:14:36.201Z,16.36
2019-03-03T07:23:59.779Z,16.38
2019-03-03T07:26:27.490Z,16.47
2019-03-03T07:29:07.538Z,16.38
2019-03-03T07:38:12.867Z,16.49
2019-03-03T07:43:49.812Z,16.42
2019-03-03T07:46:17.555Z,16.35
2019-03-03T07:48:45.280Z,16.41
2019-03-03T07:51:13.006Z,16.39
2019-03-03T07:53:40.723Z,16.35
2019-03-03T07:56:12.480Z,16.32
2019-03-03T07:58:40.225Z,16.34
2019-03-03T08:01:07.937Z,16.39
2019-03-03T08:03:35.643Z,16.30
2019-03-03T08:06:03.352Z,16.34
2019-03-03T08:08:31.087Z,16.40
2019-03-03T08:10:58.789Z,16.33
2019-03-03T08:13:26.502Z,16.37
2019-03-03T08:15:54.231Z,16.32
2019-03-03T08:18:22.088Z,16.36
2019-03-03T08:20:49.834Z,16.36
2019-03-03T08:23:17.560Z,16.30
2019-03-03T08:25:45.303Z,16.34
2019-03-03T08:28:13.043Z,16.35
2019-03-03T08:30:40.767Z,16.46
2019-03-03T08:33:08.563Z,16.39
2019-03-03T08:35:36.369Z,16.58
2019-03-03T08:38:04.148Z,16.38
2019-03-03T08:40:38.477Z,16.39
2019-03-03T08:43:26.772Z,16.38
2019-03-03T08:46:19.472Z,16.45
2019-03-03T08:49:06.354Z,16.48
2019-03-03T08:51:41.674Z,16.45
2019-03-03T08:54:31.744Z,16.39
2019-03-03T08:57:24.110Z,16.38
2019-03-03T09:00:04.247Z,16.48
2019-03-03T09:02:49.591Z,15.72
2019-03-03T09:05:35.086Z,16.43
2019-03-03T09:08:21.908Z,16.56
2019-03-03T09:11:17.878Z,16.45
2019-03-03T09:14:14.879Z,16.48
2019-03-03T09:16:52.168Z,16.40
2019-03-03T09:19:40.715Z,16.42
2019-03-03T09:22:31.657Z,16.40
2019-03-03T09:25:24.491Z,16.48
2019-03-03T09:28:13.214Z,16.43
2019-03-03T09:30:48.034Z,16.48
2019-03-03T09:33:30.038Z,16.49
2019-03-03T09:36:05.703Z,16.48
2019-03-03T09:38:40.616Z,16.46
2019-03-03T09:41:18.275Z,16.49
2019-03-03T09:43:57.580Z,16.53
2019-03-03T09:46:34.288Z,16.46
2019-03-03T09:49:23.775Z,16.53
2019-03-03T09:52:14.355Z,16.59
2019-03-03T09:54:47.397Z,16.55
2019-03-03T09:57:33.164Z,16.55
2019-03-03T10:00:19.078Z,16.63
2019-03-03T10:03:08.447Z,16.54
2019-03-03T10:05:55.291Z,16.55
2019-03-03T10:08:29.995Z,16.53
2019-03-03T10:11:15.845Z,16.53
2019-03-03T10:13:57.403Z,16.51
2019-03-03T10:16:46.111Z,16.65
2019-03-03T10:19:31.806Z,16.70
2019-03-03T10:22:08.498Z,16.59
2019-03-03T10:25:04.896Z,16.60
2019-03-03T10:28:00.380Z,16.57
2019-03-03T10:30:59.354Z,16.56
2019-03-03T10:33:38.881Z,16.74
2019-03-03T10:36:24.661Z,16.62
2019-03-03T10:39:21.931Z,16.69
2019-03-03T10:42:17.970Z,16.70
2019-03-03T10:45:04.850Z,16.63
2019-03-03T10:47:45.611Z,16.72
2019-03-03T10:50:30.728Z,16.65
2019-03-03T10:53:03.128Z,16.73
2019-03-03T10:55:58.712Z,16.73
2019-03-03T10:58:48.682Z,16.76
2019-03-03T11:01:26.838Z,16.71
2019-03-03T11:04:12.155Z,16.76
2019-03-03T11:06:57.278Z,16.82
2019-03-03T11:09:42.835Z,16.77
2019-03-03T11:12:23.829Z,16.77
2019-03-03T11:15:19.188Z,16.70
2019-03-03T11:17:58.649Z,16.71
2019-03-03T11:20:44.219Z,16.72
2019-03-03T11:23:20.435Z,16.65
2019-03-03T11:26:00.283Z,16.68
2019-03-03T11:28:44.386Z,16.69
2019-03-03T11:31:29.331Z,16.69
2019-03-03T11:34:12.703Z,16.74
2019-03-03T11:36:54.092Z,16.75
2019-03-03T11:39:26.556Z,16.74
2019-03-03T11:42:01.239Z,16.75
2019-03-03T11:44:50.957Z,16.71
2019-03-03T11:47:43.914Z,16.72
2019-03-03T11:50:36.767Z,16.72
2019-03-03T11:53:14.137Z,16.77
2019-03-03T11:55:51.401Z,16.74
2019-03-03T11:58:30.938Z,16.73
2019-03-03T12:01:26.991Z,16.78
2019-03-03T12:04:17.883Z,16.75
2019-03-03T12:07:04.007Z,16.78
2019-03-03T12:09:50.606Z,16.78
2019-03-03T12:12:31.461Z,16.81
2019-03-03T12:15:24.390Z,16.84
2019-03-03T12:18:02.036Z,16.83
2019-03-03T12:20:47.808Z,16.82
2019-03-03T12:23:49.884Z,16.81
2019-03-03T12:26:27.783Z,16.87
2019-03-03T12:29:13.048Z,16.85
2019-03-03T12:31:47.434Z,16.88
2019-03-03T12:34:34.395Z,16.97
2019-03-03T12:37:20.219Z,16.99
2019-03-03T12:40:14.107Z,16.90
2019-03-03T12:42:58.998Z,17.03
2019-03-03T12:45:32.764Z,16.89
2019-03-03T12:48:11.028Z,16.95
2019-03-03T12:50:48.119Z,16.90
2019-03-03T12:53:41.046Z,16.93
2019-03-03T12:56:34.086Z,16.98
2019-03-03T12:59:29.548Z,16.97
2019-03-03T13:02:24.582Z,17.03
2019-03-03T13:05:10.539Z,16.98
2019-03-03T13:08:00.199Z,16.98
2019-03-03T13:10:50.587Z,17.11
2019-03-03T13:13:40.318Z,17.05
2019-03-03T13:16:30.237Z,17.08
2019-03-03T13:19:17.716Z,16.98
2019-03-03T13:22:07.620Z,16.97
2019-03-03T13:24:47.879Z,17.00
2019-03-03T13:27:33.692Z,17.02
2019-03-03T13:30:29.727Z,16.96
2019-03-03T13:33:11.436Z,16.97
2019-03-03T13:35:47.905Z,17.02
2019-03-03T13:38:40.257Z,17.01
2019-03-03T13:41:14.588Z,17.04
2019-03-03T13:43:42.354Z,17.05
2019-03-03T13:46:15.208Z,17.01
2019-03-03T13:48:42.966Z,17.04
2019-03-03T13:51:10.682Z,17.03
2019-03-03T13:53:38.423Z,17.04
2019-03-03T13:56:06.142Z,17.03
2019-03-03T13:58:33.879Z,17.08
2019-03-03T14:01:01.579Z,17.10
2019-03-03T14:03:29.311Z,17.06
2019-03-03T14:05:57.157Z,17.08
2019-03-03T14:08:24.985Z,17.11
2019-03-03T14:10:52.703Z,17.08
2019-03-03T14:13:20.475Z,17.10
2019-03-03T14:15:48.211Z,17.08
2019-03-03T14:18:16.001Z,17.10
2019-03-03T14:20:44.133Z,17.12
2019-03-03T14:23:11.843Z,17.12
2019-03-03T14:25:39.576Z,17.14
2019-03-03T14:28:13.248Z,17.17
2019-03-03T14:30:40.983Z,17.13
2019-03-03T14:33:08.720Z,17.12
2019-03-03T14:35:36.430Z,17.11
2019-03-03T14:38:04.159Z,17.12
2019-03-03T14:40:31.970Z,17.14
2019-03-03T14:42:59.723Z,17.12
2019-03-03T14:45:27.699Z,17.16
2019-03-03T14:47:55.412Z,17.17
2019-03-03T14:50:23.129Z,17.16
2019-03-03T14:52:50.867Z,17.14
2019-03-03T14:55:18.778Z,17.15
2019-03-03T14:57:46.514Z,17.12
2019-03-03T15:00:21.223Z,17.13
2019-03-03T15:02:48.961Z,17.14
2019-03-03T15:05:25.447Z,17.15
2019-03-03T15:07:49.104Z,17.14
2019-03-03T15:10:16.840Z,17.18
2019-03-03T15:12:44.566Z,17.19
2019-03-03T15:15:12.412Z,17.17
2019-03-03T15:17:40.147Z,17.21
2019-03-03T15:20:07.863Z,17.21
2019-03-03T15:22:35.591Z,17.19
2019-03-03T15:25:03.331Z,17.20
2019-03-03T15:27:31.070Z,17.18
2019-03-03T15:29:58.787Z,17.21
2019-03-03T15:32:26.534Z,17.19
2019-03-03T15:34:54.255Z,17.19
2019-03-03T15:37:21.975Z,17.20
2019-03-03T15:39:49.735Z,17.21
2019-03-03T15:42:17.460Z,17.18
2019-03-03T15:44:45.228Z,17.18
2019-03-03T15:47:20.750Z,17.24
2019-03-03T15:49:49.199Z,17.24
2019-03-03T15:52:16.923Z,17.21
2019-03-03T15:54:44.679Z,17.21
2019-03-03T15:57:15.758Z,17.20
2019-03-03T15:59:43.491Z,17.23
2019-03-03T16:02:12.622Z,17.24
2019-03-03T16:04:40.420Z,17.23
2019-03-03T16:07:08.131Z,17.24
2019-03-03T16:09:35.888Z,17.20
2019-03-03T16:12:03.635Z,17.20
2019-03-03T16:14:31.622Z,17.18
2019-03-03T16:16:59.370Z,17.16
2019-03-03T16:19:27.083Z,17.17
2019-03-03T16:22:00.840Z,17.21
2019-03-03T16:24:27.663Z,17.22
2019-03-03T16:26:55.375Z,17.23
2019-03-03T16:29:23.117Z,17.23
2019-03-03T16:31:50.834Z,17.26
2019-03-03T16:34:18.591Z,17.27
2019-03-03T16:36:46.393Z,17.18
2019-03-03T16:39:14.102Z,17.21
2019-03-03T16:41:41.814Z,17.19
2019-03-03T16:44:09.531Z,17.17
2019-03-03T16:46:37.295Z,17.22
2019-03-03T16:49:05.007Z,17.28
2019-03-03T16:51:32.715Z,17.27
2019-03-03T16:54:01.279Z,17.29
2019-03-03T16:56:29.006Z,17.30
2019-03-03T16:58:57.770Z,17.30
2019-03-03T17:01:25.536Z,17.30
2019-03-03T17:03:54.783Z,17.29
2019-03-03T17:06:28.557Z,17.31
2019-03-03T17:08:53.913Z,17.31
2019-03-03T17:11:21.623Z,17.31
2019-03-03T17:13:49.330Z,17.30
2019-03-03T17:16:17.054Z,17.31
2019-03-03T17:18:44.830Z,17.31
2019-03-03T17:21:12.541Z,17.36
2019-03-03T17:23:40.262Z,17.29
2019-03-03T17:26:09.477Z,17.34
2019-03-03T17:28:37.383Z,17.30
2019-03-03T17:31:05.148Z,17.31
2019-03-03T17:33:32.876Z,17.26
2019-03-03T17:36:00.621Z,17.26
2019-03-03T17:38:28.349Z,17.30
2019-03-03T17:40:56.063Z,17.28
2019-03-03T17:43:23.806Z,17.30
2019-03-03T17:45:51.792Z,17.14
2019-03-03T17:48:33.681Z,17.36
2019-03-03T17:50:53.318Z,17.36
2019-03-03T17:53:21.043Z,17.33
2019-03-03T17:55:48.761Z,17.28
2019-03-03T17:58:16.527Z,17.37
2019-03-03T18:00:45.344Z,17.35
2019-03-03T18:03:13.121Z,17.34
2019-03-03T18:05:40.839Z,17.28
2019-03-03T18:08:08.550Z,17.28
2019-03-03T18:10:36.306Z,17.28
2019-03-03T18:13:04.044Z,17.37
2019-03-03T18:15:31.767Z,17.29
2019-03-03T18:17:59.477Z,17.32
2019-03-03T18:20:27.179Z,17.26
2019-03-03T18:22:54.931Z,17.28
2019-03-03T18:25:22.741Z,17.28
2019-03-03T18:27:58.229Z,17.25
2019-03-03T18:30:24.599Z,17.30
2019-03-03T18:32:52.748Z,17.29
2019-03-03T18:35:20.624Z,17.29
2019-03-03T18:37:48.391Z,17.20
2019-03-03T18:40:16.918Z,17.19
2019-03-03T18:42:44.674Z,17.22
2019-03-03T18:45:13.037Z,17.27
2019-03-03T18:47:40.834Z,17.19
2019-03-03T18:50:10.191Z,17.20
2019-03-03T18:52:38.055Z,17.17
2019-03-03T18:55:06.429Z,17.40
2019-03-03T18:57:34.182Z,17.28
2019-03-03T19:00:01.913Z,17.29
2019-03-03T19:02:29.785Z,17.06
2019-03-03T19:04:57.624Z,17.27
2019-03-03T19:07:32.249Z,17.24
2019-03-03T19:10:03.459Z,17.30
2019-03-03T19:12:31.276Z,17.23
2019-03-03T19:15:04.472Z,17.26
2019-03-03T19:17:35.287Z,17.28
2019-03-03T19:20:03.333Z,17.31
2019-03-03T19:22:32.260Z,17.27
2019-03-03T19:25:00.285Z,17.33
2019-03-03T19:27:28.463Z,17.33
2019-03-03T19:29:56.272Z,17.32
2019-03-03T19:32:24.188Z,17.33
2019-03-03T19:34:53.290Z,17.36
2019-03-03T19:37:21.179Z,17.32
2019-03-03T19:39:59.776Z,17.26
2019-03-03T19:42:27.715Z,17.20
2019-03-03T19:44:55.606Z,17.26
2019-03-03T19:47:23.493Z,17.25
2019-03-03T19:49:52.664Z,17.30
2019-03-03T19:52:20.689Z,17.34
2019-03-03T19:54:48.472Z,17.30
2019-03-03T19:57:16.327Z,17.29
2019-03-03T19:59:44.059Z,17.27
2019-03-03T20:02:12.153Z,17.29
2019-03-03T20:04:40.166Z,17.38
2019-03-03T20:07:08.061Z,17.30
2019-03-03T20:09:38.311Z,17.32
2019-03-03T20:12:06.456Z,17.38
2019-03-03T20:14:43.677Z,17.28
2019-03-03T20:17:11.658Z,17.31
2019-03-03T20:19:39.581Z,17.24
2019-03-03T20:22:07.316Z,17.36
2019-03-03T20:24:35.133Z,17.32
2019-03-03T20:27:02.934Z,17.38
2019-03-03T20:29:30.816Z,17.36
2019-03-03T20:31:58.568Z,17.33
2019-03-03T20:34:26.431Z,17.34
2019-03-03T20:36:54.144Z,17.34
2019-03-03T20:39:22.031Z,17.45
2019-03-03T20:41:49.842Z,17.32
2019-03-03T20:44:17.608Z,17.29
2019-03-03T20:46:45.377Z,17.35
2019-03-03T20:49:13.219Z,17.29
2019-03-03T20:51:42.086Z,17.31
2019-03-03T20:54:13.584Z,17.55
2019-03-03T20:56:46.634Z,17.38
2019-03-03T20:59:14.431Z,16.55
2019-03-03T21:01:42.179Z,17.51
2019-03-03T21:04:09.942Z,17.37
2019-03-03T21:06:37.682Z,17.32
2019-03-03T21:09:06.043Z,17.36
2019-03-03T21:11:33.866Z,17.36
2019-03-03T21:14:03.725Z,17.38
2019-03-03T21:16:32.166Z,17.41
2019-03-03T21:18:59.903Z,17.39
2019-03-03T21:21:27.654Z,17.35
2019-03-03T21:23:55.508Z,17.42
2019-03-03T21:26:23.228Z,17.45
2019-03-03T21:28:51.017Z,17.44
2019-03-03T21:31:22.570Z,17.43
2019-03-03T21:33:57.494Z,17.41
2019-03-03T21:36:25.325Z,17.42
2019-03-03T21:38:53.055Z,17.38
2019-03-03T21:41:20.866Z,17.40
2019-03-03T21:43:48.707Z,17.32
2019-03-03T21:46:16.469Z,17.35
2019-03-03T21:48:44.227Z,17.33
2019-03-03T21:51:12.016Z,17.38
2019-03-03T21:53:39.754Z,17.35
2019-03-03T21:56:07.544Z,17.31
2019-03-03T21:58:35.463Z,17.42
2019-03-03T22:01:03.241Z,17.29
2019-03-03T22:03:30.972Z,17.31
2019-03-03T22:05:58.715Z,17.35
2019-03-03T22:08:26.460Z,17.30
2019-03-03T22:10:54.192Z,17.35
2019-03-03T22:13:33.545Z,17.36
2019-03-03T22:15:55.836Z,17.40
2019-03-03T22:18:23.630Z,17.32
2019-03-03T22:20:51.407Z,17.34
2019-03-03T22:23:19.171Z,17.35
2019-03-03T22:25:47.040Z,17.35
2019-03-03T22:28:14.763Z,17.26
2019-03-03T22:30:42.614Z,17.30
2019-03-03T22:33:10.371Z,17.32
2019-03-03T22:35:38.274Z,17.26
2019-03-03T22:38:06.111Z,17.31
2019-03-03T22:40:33.942Z,17.34
2019-03-03T22:43:01.684Z,17.32
2019-03-03T22:45:29.471Z,17.28
2019-03-03T22:47:57.215Z,17.24
2019-03-03T22:50:24.973Z,17.30
2019-03-03T22:52:52.811Z,17.26
2019-03-03T22:55:31.181Z,17.30
2019-03-03T22:57:58.913Z,17.30
2019-03-03T23:00:43.013Z,17.29
2019-03-03T23:03:10.854Z,17.21
2019-03-03T23:06:02.805Z,17.26
2019-03-03T23:09:02.657Z,17.29
2019-03-03T23:11:51.032Z,17.33
2019-03-03T23:14:46.029Z,17.16
2019-03-03T23:17:42.347Z,17.21
2019-03-03T23:20:13.487Z,17.22
2019-03-03T23:22:47.094Z,17.27
2019-03-03T23:25:38.814Z,17.20
2019-03-03T23:28:07.529Z,17.28
2019-03-03T23:30:35.555Z,17.25
2019-03-03T23:33:03.536Z,17.25
2019-03-03T23:38:53.070Z,17.33
2019-03-03T23:41:27.064Z,17.24
2019-03-03T23:43:59.521Z,17.21
2019-03-03T23:46:30.488Z,17.22
2019-03-03T23:49:00.962Z,17.24
2019-03-03T23:54:25.953Z,17.20
2019-03-03T23:56:53.835Z,17.23
2019-03-03T23:59:21.673Z,17.23
